createdAt,value
2023-05-14T00:01:40.569Z,72.74
2023-05-14T00:04:09.235Z,72.77
2023-05-14T00:06:37.572Z,73.00
2023-05-14T00:09:07.317Z,73.41
2023-05-14T00:11:35.599Z,73.35
2023-05-14T00:14:03.925Z,73.31
2023-05-14T00:16:32.312Z,73.71
2023-05-14T00:19:00.790Z,73.57
2023-05-14T00:21:29.229Z,73.34
2023-05-14T00:23:57.537Z,73.96
2023-05-14T00:26:27.301Z,74.71
2023-05-14T00:28:55.851Z,75.21
2023-05-14T00:31:24.285Z,75.29
2023-05-14T00:33:52.693Z,76.30
2023-05-14T00:36:21.007Z,75.98
2023-05-14T00:38:50.292Z,75.65
2023-05-14T00:41:18.718Z,75.73
2023-05-14T00:43:48.403Z,75.72
2023-05-14T00:46:17.430Z,76.20
2023-05-14T00:48:46.258Z,76.71
2023-05-14T00:51:14.812Z,76.31
2023-05-14T00:53:43.288Z,76.52
2023-05-14T00:56:11.650Z,76.78
2023-05-14T00:58:40.817Z,76.37
2023-05-14T01:01:11.086Z,76.29
2023-05-14T01:03:39.855Z,76.47
2023-05-14T01:06:15.618Z,76.20
2023-05-14T01:08:54.526Z,75.68
2023-05-14T01:11:28.686Z,75.53
2023-05-14T01:14:08.751Z,75.84
2023-05-14T01:16:41.351Z,75.57
2023-05-14T01:19:22.929Z,75.49
2023-05-14T01:21:52.650Z,75.40
2023-05-14T01:24:21.096Z,75.16
2023-05-14T01:26:49.467Z,74.06
2023-05-14T01:29:22.511Z,73.29
2023-05-14T01:31:52.310Z,72.93
2023-05-14T01:34:23.409Z,72.50
2023-05-14T01:36:54.427Z,72.60
2023-05-14T01:39:24.026Z,72.70
2023-05-14T01:41:53.295Z,72.42
2023-05-14T01:44:22.756Z,72.57
2023-05-14T01:46:51.035Z,73.32
2023-05-14T01:49:19.664Z,73.08
2023-05-14T01:51:48.049Z,73.02
2023-05-14T01:54:17.731Z,72.76
2023-05-14T01:56:46.122Z,73.09
2023-05-14T01:59:14.458Z,72.63
2023-05-14T02:01:42.814Z,72.56
2023-05-14T02:04:11.589Z,72.35
2023-05-14T02:06:39.953Z,71.80
2023-05-14T02:09:08.247Z,71.87
2023-05-14T02:11:37.932Z,71.13
2023-05-14T02:14:06.243Z,72.00
2023-05-14T02:16:34.637Z,71.50
2023-05-14T02:19:03.017Z,70.95
2023-05-14T02:21:31.985Z,70.83
2023-05-14T02:24:00.290Z,69.94
2023-05-14T02:26:28.648Z,69.39
2023-05-14T02:28:58.896Z,69.03
2023-05-14T02:31:27.290Z,68.52
2023-05-14T02:33:55.671Z,68.37
2023-05-14T02:36:24.021Z,67.98
2023-05-14T02:38:52.290Z,67.94
2023-05-14T02:41:21.483Z,67.78
2023-05-14T02:43:49.774Z,68.21
2023-05-14T02:46:19.581Z,67.82
2023-05-14T02:48:48.017Z,67.72
2023-05-14T02:51:16.778Z,67.42
2023-05-14T02:53:45.159Z,67.54
2023-05-14T02:56:13.490Z,67.87
2023-05-14T02:58:41.831Z,67.93
2023-05-14T03:01:10.305Z,67.60
2023-05-14T03:03:40.753Z,66.83
2023-05-14T03:06:09.385Z,66.22
2023-05-14T03:08:37.746Z,66.06
2023-05-14T03:11:06.874Z,64.66
2023-05-14T03:13:35.232Z,63.45
2023-05-14T03:16:03.536Z,61.73
2023-05-14T03:18:33.362Z,61.39
2023-05-14T03:21:03.908Z,60.89
2023-05-14T03:23:34.985Z,59.89
2023-05-14T03:26:03.853Z,60.38
2023-05-14T03:28:32.206Z,60.50
2023-05-14T03:31:00.977Z,60.61
2023-05-14T03:33:29.456Z,60.38
2023-05-14T03:35:57.907Z,60.11
2023-05-14T03:38:27.625Z,60.59
2023-05-14T03:40:55.983Z,60.60
2023-05-14T03:43:24.367Z,61.45
2023-05-14T03:45:53.087Z,60.92
2023-05-14T03:48:21.533Z,61.58
2023-05-14T03:50:50.185Z,61.29
2023-05-14T03:53:18.512Z,61.14
2023-05-14T03:55:48.188Z,61.38
2023-05-14T03:58:17.391Z,61.74
2023-05-14T04:00:45.996Z,60.92
2023-05-14T04:03:14.805Z,61.63
2023-05-14T04:05:43.185Z,61.80
2023-05-14T04:08:11.556Z,62.56
2023-05-14T04:10:40.156Z,62.07
2023-05-14T04:13:09.950Z,61.80
2023-05-14T04:15:39.402Z,62.31
2023-05-14T04:18:07.987Z,63.37
2023-05-14T04:20:36.849Z,64.47
2023-05-14T04:23:05.246Z,64.51
2023-05-14T04:25:33.593Z,65.03
2023-05-14T04:28:01.903Z,65.67
2023-05-14T04:30:31.697Z,66.06
2023-05-14T04:33:00.060Z,66.90
2023-05-14T04:35:28.630Z,66.20
2023-05-14T04:37:56.956Z,66.40
2023-05-14T04:40:25.579Z,65.02
2023-05-14T04:42:54.157Z,65.86
2023-05-14T04:45:22.466Z,66.51
2023-05-14T04:47:52.331Z,66.26
2023-05-14T04:50:20.857Z,65.47
2023-05-14T04:52:49.334Z,63.59
2023-05-14T04:55:17.840Z,62.46
2023-05-14T04:57:46.152Z,62.65
2023-05-14T05:00:15.810Z,62.44
2023-05-14T05:02:44.685Z,62.12
2023-05-14T05:05:14.602Z,62.91
2023-05-14T05:07:42.926Z,63.63
2023-05-14T05:10:11.491Z,63.50
2023-05-14T05:12:39.791Z,63.74
2023-05-14T05:15:09.858Z,64.51
2023-05-14T05:17:38.346Z,64.45
2023-05-14T05:20:09.704Z,65.78
2023-05-14T05:22:39.422Z,65.12
2023-05-14T05:25:09.050Z,64.63
2023-05-14T05:27:37.416Z,64.45
2023-05-14T05:30:07.351Z,63.07
2023-05-14T05:32:36.146Z,63.31
2023-05-14T05:35:04.939Z,63.55
2023-05-14T05:37:33.343Z,64.01
2023-05-14T05:40:04.435Z,63.52
2023-05-14T05:42:32.899Z,64.82
2023-05-14T05:45:01.204Z,65.20
2023-05-14T05:47:30.107Z,64.96
2023-05-14T05:49:58.448Z,66.13
2023-05-14T05:52:26.834Z,65.44
2023-05-14T05:54:55.132Z,66.19
2023-05-14T05:57:27.082Z,65.33
2023-05-14T05:59:55.462Z,64.63
2023-05-14T06:02:25.275Z,64.59
2023-05-14T06:04:53.801Z,63.81
2023-05-14T06:07:22.140Z,63.89
2023-05-14T06:09:50.502Z,63.58
2023-05-14T06:12:18.831Z,61.98
2023-05-14T06:14:48.630Z,60.14
2023-05-14T06:17:16.948Z,61.71
2023-05-14T06:19:45.255Z,62.22
2023-05-14T06:22:14.775Z,61.13
2023-05-14T06:24:43.093Z,59.83
2023-05-14T06:27:11.675Z,61.82
2023-05-14T06:29:40.006Z,61.75
2023-05-14T06:32:10.417Z,62.64
2023-05-14T06:34:38.807Z,62.61
2023-05-14T06:37:07.097Z,59.23
2023-05-14T06:39:35.501Z,60.38
2023-05-14T06:42:03.923Z,60.64
2023-05-14T06:44:32.652Z,60.20
2023-05-14T06:47:00.974Z,60.00
2023-05-14T06:49:30.645Z,59.70
2023-05-14T06:51:59.022Z,57.60
2023-05-14T06:54:27.449Z,57.20
2023-05-14T06:56:55.813Z,56.68
2023-05-14T06:59:24.135Z,57.72
2023-05-14T07:01:52.559Z,57.30
2023-05-14T07:04:21.273Z,57.92
2023-05-14T07:06:50.998Z,58.15
2023-05-14T07:09:19.874Z,56.83
2023-05-14T07:11:48.176Z,56.52
2023-05-14T07:14:16.484Z,56.76
2023-05-14T07:16:47.001Z,56.92
2023-05-14T07:19:15.541Z,56.09
2023-05-14T07:21:43.970Z,55.33
2023-05-14T07:24:13.715Z,56.16
2023-05-14T07:26:42.056Z,56.05
2023-05-14T07:29:10.364Z,55.51
2023-05-14T07:31:38.791Z,56.17
2023-05-14T07:34:08.498Z,56.31
2023-05-14T07:36:36.838Z,54.65
2023-05-14T07:39:05.181Z,54.83
2023-05-14T07:41:35.015Z,53.67
2023-05-14T07:44:03.362Z,54.07
2023-05-14T07:46:31.735Z,54.38
2023-05-14T07:49:00.057Z,53.45
2023-05-14T07:51:28.534Z,54.37
2023-05-14T07:53:56.926Z,53.60
2023-05-14T07:56:25.657Z,52.51
2023-05-14T07:58:55.948Z,51.61
2023-05-14T08:01:24.385Z,51.69
2023-05-14T08:03:53.255Z,51.14
2023-05-14T08:06:22.780Z,49.41
2023-05-14T08:08:51.105Z,48.24
2023-05-14T08:11:19.492Z,48.90
2023-05-14T08:13:47.841Z,48.48
2023-05-14T08:16:17.570Z,47.36
2023-05-14T08:18:46.354Z,47.51
2023-05-14T08:21:14.715Z,46.90
2023-05-14T08:23:43.028Z,45.91
2023-05-14T08:26:11.429Z,43.48
2023-05-14T08:28:39.714Z,42.55
2023-05-14T08:31:08.113Z,42.22
2023-05-14T08:33:37.892Z,42.68
2023-05-14T08:36:07.264Z,42.26
2023-05-14T08:38:35.582Z,42.55
2023-05-14T08:41:07.186Z,42.85
2023-05-14T08:43:45.241Z,43.02
2023-05-14T08:46:15.896Z,42.40
2023-05-14T08:48:49.315Z,42.95
2023-05-14T08:51:17.787Z,42.50
2023-05-14T08:53:46.144Z,41.67
2023-05-14T08:56:16.449Z,41.76
2023-05-14T08:58:44.847Z,42.20
2023-05-14T09:01:13.241Z,41.63
2023-05-14T09:03:42.173Z,41.25
2023-05-14T09:06:13.872Z,40.18
2023-05-14T09:08:42.263Z,40.18
2023-05-14T09:11:10.630Z,40.95
2023-05-14T09:13:39.477Z,41.62
2023-05-14T09:16:08.600Z,42.70
2023-05-14T09:18:37.881Z,40.57
2023-05-14T09:21:06.396Z,42.28
2023-05-14T09:23:36.215Z,41.57
2023-05-14T09:26:06.574Z,40.86
2023-05-14T09:28:34.994Z,45.70
2023-05-14T09:31:03.711Z,40.59
2023-05-14T09:33:32.848Z,44.08
2023-05-14T09:36:01.667Z,42.02
2023-05-14T09:38:30.882Z,39.23
2023-05-14T09:41:01.630Z,39.10
2023-05-14T09:43:30.045Z,42.24
2023-05-14T09:45:58.325Z,39.26
2023-05-14T09:48:27.004Z,49.43
2023-05-14T09:50:55.394Z,42.32
2023-05-14T09:53:23.764Z,42.71
2023-05-14T09:55:52.105Z,41.50
2023-05-14T09:58:21.895Z,38.06
2023-05-14T10:00:51.926Z,37.21
2023-05-14T10:03:23.084Z,37.92
2023-05-14T10:05:52.120Z,38.96
2023-05-14T10:08:25.562Z,39.80
2023-05-14T10:10:55.608Z,36.87
2023-05-14T10:13:31.384Z,38.26
2023-05-14T10:16:09.252Z,38.90
2023-05-14T10:18:48.584Z,38.27
2023-05-14T10:21:21.168Z,38.26
2023-05-14T10:23:51.400Z,41.82
2023-05-14T10:26:21.783Z,37.93
2023-05-14T10:28:53.112Z,40.85
2023-05-14T10:31:24.429Z,38.12
2023-05-14T10:33:54.674Z,37.39
2023-05-14T10:36:23.639Z,37.47
2023-05-14T10:38:57.057Z,36.54
2023-05-14T10:41:25.694Z,38.72
2023-05-14T10:43:58.905Z,38.84
2023-05-14T10:46:27.539Z,39.16
2023-05-14T10:48:56.074Z,38.66
2023-05-14T10:51:24.622Z,39.19
2023-05-14T10:53:54.188Z,39.04
2023-05-14T10:56:22.987Z,38.92
2023-05-14T10:58:51.675Z,36.47
2023-05-14T11:01:25.393Z,36.84
2023-05-14T11:03:55.899Z,36.13
2023-05-14T11:06:24.558Z,37.24
2023-05-14T11:08:54.271Z,38.45
2023-05-14T11:11:22.799Z,39.01
2023-05-14T11:13:51.770Z,40.57
2023-05-14T11:16:24.274Z,39.73
2023-05-14T11:19:03.431Z,39.58
2023-05-14T11:21:32.662Z,39.41
2023-05-14T11:24:01.499Z,41.28
2023-05-14T11:26:30.024Z,39.51
2023-05-14T11:28:58.752Z,39.01
2023-05-14T11:31:29.258Z,38.46
2023-05-14T11:33:58.463Z,38.88
2023-05-14T11:36:26.916Z,38.43
2023-05-14T11:38:55.335Z,38.77
2023-05-14T11:41:23.867Z,39.54
2023-05-14T11:43:52.426Z,38.70
2023-05-14T11:46:22.457Z,39.10
2023-05-14T11:48:52.377Z,38.73
2023-05-14T11:51:20.819Z,38.66
2023-05-14T11:53:49.281Z,39.44
2023-05-14T11:56:17.838Z,39.82
2023-05-14T11:58:49.581Z,39.74
2023-05-14T12:01:18.199Z,40.63
2023-05-14T12:03:47.393Z,39.67
2023-05-14T12:06:17.449Z,40.90
2023-05-14T12:08:48.612Z,40.11
2023-05-14T12:11:22.145Z,40.92
2023-05-14T12:13:51.244Z,40.20
2023-05-14T12:16:22.096Z,39.98
2023-05-14T12:18:50.924Z,38.98
2023-05-14T12:21:20.955Z,37.97
2023-05-14T12:23:49.379Z,37.74
2023-05-14T12:26:17.962Z,36.75
2023-05-14T12:28:49.071Z,37.44
2023-05-14T12:31:17.755Z,37.25
2023-05-14T12:33:46.225Z,37.49
2023-05-14T12:38:49.807Z,36.95
2023-05-14T12:41:18.504Z,36.82
2023-05-14T12:43:49.775Z,35.69
2023-05-14T12:46:18.473Z,38.31
2023-05-14T12:48:47.343Z,35.57
2023-05-14T12:51:16.012Z,35.42
2023-05-14T12:53:44.520Z,34.96
2023-05-14T12:56:14.649Z,35.65
2023-05-14T12:58:43.033Z,35.23
2023-05-14T13:01:11.827Z,35.23
2023-05-14T13:03:41.165Z,36.10
2023-05-14T13:06:09.724Z,34.79
2023-05-14T13:08:38.260Z,34.64
2023-05-14T13:11:06.787Z,33.87
2023-05-14T13:13:36.698Z,35.39
2023-05-14T13:16:05.797Z,41.81
2023-05-14T13:18:34.266Z,36.82
2023-05-14T13:21:06.300Z,37.89
2023-05-14T13:23:34.646Z,44.83
2023-05-14T13:26:03.024Z,37.84
2023-05-14T13:28:31.442Z,37.23
2023-05-14T13:31:09.827Z,36.75
2023-05-14T13:33:39.574Z,38.51
2023-05-14T13:36:09.131Z,41.87
2023-05-14T13:38:37.632Z,37.23
2023-05-14T13:41:06.523Z,41.08
2023-05-14T13:43:36.257Z,38.58
2023-05-14T13:46:06.040Z,37.48
2023-05-14T13:48:37.263Z,37.06
2023-05-14T13:51:05.707Z,37.29
2023-05-14T13:53:34.063Z,37.12
2023-05-14T13:56:02.520Z,37.63
2023-05-14T13:58:31.373Z,37.66
2023-05-14T14:00:59.853Z,40.91
2023-05-14T14:03:28.298Z,41.80
2023-05-14T14:05:58.096Z,44.21
2023-05-14T14:08:26.492Z,43.08
2023-05-14T14:10:55.718Z,38.91
2023-05-14T14:13:24.440Z,39.32
2023-05-14T14:15:53.043Z,38.31
2023-05-14T14:18:21.544Z,38.81
2023-05-14T14:20:50.037Z,38.52
2023-05-14T14:23:19.855Z,40.76
2023-05-14T14:25:48.224Z,38.91
2023-05-14T14:28:16.599Z,39.04
2023-05-14T14:30:45.076Z,40.99
2023-05-14T14:33:13.570Z,36.33
2023-05-14T14:35:42.660Z,37.50
2023-05-14T14:38:11.151Z,42.50
2023-05-14T14:40:40.951Z,39.70
2023-05-14T14:43:09.313Z,37.33
2023-05-14T14:45:37.740Z,42.82
2023-05-14T14:48:26.953Z,40.67
2023-05-14T14:50:55.994Z,40.38
2023-05-14T14:53:25.499Z,38.73
2023-05-14T14:55:55.593Z,37.33
2023-05-14T14:58:24.816Z,34.96
2023-05-14T15:00:55.321Z,33.91
2023-05-14T15:03:25.376Z,34.78
2023-05-14T15:05:54.188Z,39.00
2023-05-14T15:08:26.374Z,35.13
2023-05-14T15:10:56.731Z,34.41
2023-05-14T15:13:25.773Z,32.89
2023-05-14T15:15:54.350Z,32.64
2023-05-14T15:18:23.089Z,32.94
2023-05-14T15:20:52.198Z,33.74
2023-05-14T15:23:21.226Z,33.57
2023-05-14T15:25:50.054Z,33.92
2023-05-14T15:28:19.874Z,34.16
2023-05-14T15:30:49.103Z,33.65
2023-05-14T15:33:19.213Z,34.41
2023-05-14T15:35:47.790Z,33.54
2023-05-14T15:38:16.247Z,33.96
2023-05-14T15:40:44.647Z,34.13
2023-05-14T15:43:13.165Z,34.53
2023-05-14T15:45:45.427Z,34.58
2023-05-14T15:48:13.813Z,34.65
2023-05-14T15:50:42.764Z,34.56
2023-05-14T15:53:11.120Z,35.15
2023-05-14T15:55:39.575Z,36.05
2023-05-14T15:58:07.929Z,36.05
2023-05-14T16:00:36.461Z,35.51
2023-05-14T16:03:06.734Z,34.96
2023-05-14T16:05:35.372Z,35.01
2023-05-14T16:08:03.884Z,36.26
2023-05-14T16:10:32.203Z,35.56
2023-05-14T16:13:00.562Z,36.22
2023-05-14T16:15:29.091Z,35.88
2023-05-14T16:17:57.604Z,35.77
2023-05-14T16:20:27.365Z,35.34
2023-05-14T16:22:55.700Z,36.16
2023-05-14T16:25:24.049Z,36.93
2023-05-14T16:27:52.393Z,36.14
2023-05-14T16:30:20.873Z,35.91
2023-05-14T16:32:49.603Z,37.42
2023-05-14T16:35:19.109Z,37.18
2023-05-14T16:37:48.849Z,36.80
2023-05-14T16:40:19.604Z,37.08
2023-05-14T16:42:49.261Z,37.35
2023-05-14T16:45:18.066Z,37.04
2023-05-14T16:47:46.463Z,36.76
2023-05-14T16:50:14.832Z,37.42
2023-05-14T16:52:43.198Z,37.37
2023-05-14T16:55:13.066Z,37.90
2023-05-14T16:57:41.460Z,38.58
2023-05-14T17:00:11.185Z,38.14
2023-05-14T17:02:40.084Z,38.64
2023-05-14T17:05:09.657Z,39.20
2023-05-14T17:07:38.527Z,39.07
2023-05-14T17:10:08.117Z,38.82
2023-05-14T17:12:37.883Z,38.89
2023-05-14T17:15:08.073Z,39.25
2023-05-14T17:17:36.503Z,39.86
2023-05-14T17:20:06.601Z,39.28
2023-05-14T17:25:03.442Z,40.68
2023-05-14T17:27:33.289Z,40.78
2023-05-14T17:30:03.497Z,41.25
2023-05-14T17:32:32.050Z,40.96
2023-05-14T17:35:00.463Z,41.00
2023-05-14T17:37:28.931Z,41.30
2023-05-14T17:39:57.311Z,42.30
2023-05-14T17:42:25.758Z,42.03
2023-05-14T17:44:54.511Z,42.02
2023-05-14T17:47:24.280Z,42.04
2023-05-14T17:49:52.788Z,43.40
2023-05-14T17:52:21.368Z,43.39
2023-05-14T17:54:49.752Z,43.90
2023-05-14T17:57:18.263Z,44.86
2023-05-14T17:59:46.622Z,45.19
2023-05-14T18:02:15.123Z,43.88
2023-05-14T18:04:45.271Z,43.38
2023-05-14T18:07:13.772Z,44.57
2023-05-14T18:09:42.096Z,45.22
2023-05-14T18:12:10.571Z,45.64
2023-05-14T18:14:38.950Z,46.14
2023-05-14T18:17:07.370Z,46.14
2023-05-14T18:19:36.566Z,46.92
2023-05-14T18:22:06.523Z,47.61
2023-05-14T18:24:35.172Z,47.79
2023-05-14T18:27:03.737Z,48.02
2023-05-14T18:29:32.108Z,48.11
2023-05-14T18:32:00.466Z,48.47
2023-05-14T18:34:28.823Z,48.70
2023-05-14T18:36:57.609Z,49.09
2023-05-14T18:39:27.456Z,49.37
2023-05-14T18:41:56.658Z,49.50
2023-05-14T18:44:25.034Z,49.44
2023-05-14T18:46:53.751Z,49.86
2023-05-14T18:49:22.084Z,49.93
2023-05-14T18:51:50.504Z,50.02
2023-05-14T18:54:18.876Z,50.09
2023-05-14T18:56:48.614Z,50.47
2023-05-14T18:59:16.932Z,50.63
2023-05-14T19:01:45.763Z,51.41
2023-05-14T19:04:14.582Z,51.99
2023-05-14T19:06:42.970Z,52.11
2023-05-14T19:09:11.425Z,52.50
2023-05-14T19:11:39.811Z,52.92
2023-05-14T19:14:09.677Z,53.15
2023-05-14T19:16:38.093Z,53.34
2023-05-14T19:19:06.493Z,53.41
2023-05-14T19:21:35.073Z,53.37
2023-05-14T19:24:03.464Z,53.91
2023-05-14T19:26:31.853Z,54.03
2023-05-14T19:29:00.189Z,53.90
2023-05-14T19:31:29.987Z,54.14
2023-05-14T19:33:58.650Z,54.13
2023-05-14T19:36:26.998Z,53.76
2023-05-14T19:38:55.373Z,53.87
2023-05-14T19:41:23.804Z,54.19
2023-05-14T19:43:52.120Z,53.93
2023-05-14T19:46:20.604Z,54.46
2023-05-14T19:48:50.308Z,55.00
2023-05-14T19:51:18.662Z,54.71
2023-05-14T19:53:46.941Z,55.03
2023-05-14T19:56:15.584Z,55.40
2023-05-14T19:58:44.182Z,55.75
2023-05-14T20:01:12.672Z,55.78
2023-05-14T20:03:41.290Z,56.42
2023-05-14T20:06:11.354Z,56.50
2023-05-14T20:08:39.968Z,56.54
2023-05-14T20:11:08.317Z,56.74
2023-05-14T20:13:36.746Z,56.93
2023-05-14T20:16:05.922Z,57.34
2023-05-14T20:18:34.329Z,57.92
2023-05-14T20:21:02.682Z,57.57
2023-05-14T20:23:32.566Z,57.63
2023-05-14T20:26:01.782Z,57.77
2023-05-14T20:28:31.249Z,58.27
2023-05-14T20:31:00.281Z,58.36
2023-05-14T20:33:29.131Z,58.16
2023-05-14T20:35:57.640Z,58.62
2023-05-14T20:38:29.210Z,58.95
2023-05-14T20:40:58.922Z,58.92
2023-05-14T20:43:27.660Z,59.47
2023-05-14T20:45:58.871Z,60.00
2023-05-14T20:48:27.318Z,60.03
2023-05-14T20:50:55.722Z,59.66
2023-05-14T20:53:25.327Z,60.08
2023-05-14T20:55:53.674Z,60.40
2023-05-14T20:58:23.323Z,60.39
2023-05-14T21:00:51.658Z,60.12
2023-05-14T21:03:20.247Z,59.85
2023-05-14T21:05:48.650Z,60.30
2023-05-14T21:08:17.204Z,60.57
2023-05-14T21:10:45.526Z,60.68
2023-05-14T21:13:13.910Z,60.85
2023-05-14T21:15:43.624Z,61.21
2023-05-14T21:18:12.238Z,61.52
2023-05-14T21:20:41.448Z,61.32
2023-05-14T21:23:09.810Z,61.50
2023-05-14T21:25:38.245Z,61.91
2023-05-14T21:28:06.538Z,62.25
2023-05-14T21:30:34.875Z,62.81
2023-05-14T21:33:04.790Z,63.06
2023-05-14T21:35:33.289Z,63.40
2023-05-14T21:38:01.883Z,64.34
2023-05-14T21:40:30.181Z,64.79
2023-05-14T21:42:58.495Z,65.04
2023-05-14T21:45:27.085Z,65.54
2023-05-14T21:47:55.956Z,65.48
2023-05-14T21:50:26.239Z,65.55
2023-05-14T21:52:54.564Z,65.82
2023-05-14T21:55:23.215Z,66.17
2023-05-14T21:57:52.155Z,66.20
2023-05-14T22:00:23.482Z,66.69
2023-05-14T22:02:53.474Z,66.75
2023-05-14T22:05:22.507Z,67.15
2023-05-14T22:07:52.431Z,67.35
2023-05-14T22:10:21.063Z,67.75
2023-05-14T22:12:49.389Z,67.92
2023-05-14T22:15:17.721Z,68.28
2023-05-14T22:17:46.856Z,68.64
2023-05-14T22:20:15.295Z,68.71
2023-05-14T22:22:43.689Z,69.14
2023-05-14T22:25:13.365Z,69.85
2023-05-14T22:27:41.664Z,70.06
2023-05-14T22:30:10.796Z,70.83
2023-05-14T22:32:39.412Z,70.89
2023-05-14T22:35:08.177Z,71.40
2023-05-14T22:37:36.484Z,71.45
2023-05-14T22:40:06.187Z,72.01
2023-05-14T22:42:35.967Z,71.78
2023-05-14T22:45:04.428Z,71.56
2023-05-14T22:47:32.826Z,72.10
2023-05-14T22:50:01.150Z,72.18
2023-05-14T22:52:29.479Z,72.33
2023-05-14T22:54:57.797Z,72.85
2023-05-14T22:57:26.104Z,72.90
2023-05-14T22:59:55.763Z,73.53
2023-05-14T23:28:58.415Z,78.97
2023-05-14T23:31:26.850Z,79.37
2023-05-14T23:33:55.344Z,78.85
2023-05-14T23:36:24.060Z,79.04
2023-05-14T23:38:53.031Z,79.08
2023-05-14T23:41:21.772Z,78.44
2023-05-14T23:43:50.217Z,78.81
2023-05-14T23:46:20.117Z,78.69
2023-05-14T23:48:48.680Z,78.89
2023-05-14T23:51:17.117Z,78.97
2023-05-14T23:53:45.821Z,79.49
2023-05-14T23:56:14.312Z,79.31
2023-05-14T23:58:43.062Z,79.73
